createdAt,value
2016-11-12T00:00:40.791Z,0
2016-11-12T00:01:40.764Z,0
2016-11-12T00:02:40.466Z,0
2016-11-12T00:03:41.404Z,0
2016-11-12T00:04:42.089Z,0
2016-11-12T00:05:41.143Z,0
2016-11-12T00:06:40.524Z,0
2016-11-12T00:07:40.849Z,0
2016-11-12T00:08:40.558Z,0
2016-11-12T00:09:41.196Z,0
2016-11-12T00:10:40.926Z,0
2016-11-12T00:11:40.914Z,0
2016-11-12T00:12:41.236Z,0
2016-11-12T00:13:40.715Z,0
2016-11-12T00:14:40.949Z,0
2016-11-12T00:15:40.344Z,0
2016-11-12T00:16:40.661Z,0
2016-11-12T00:17:41.316Z,0
2016-11-12T00:18:40.386Z,0
2016-11-12T00:19:40.715Z,0
2016-11-12T00:20:41.356Z,0
2016-11-12T00:21:40.740Z,0
2016-11-12T00:22:40.432Z,0
2016-11-12T00:23:40.449Z,0
2016-11-12T00:24:40.775Z,0
2016-11-12T00:25:40.801Z,0
2016-11-12T00:26:40.493Z,0
2016-11-12T00:27:40.506Z,0
2016-11-12T00:28:41.212Z,0
2016-11-12T00:29:41.168Z,0
2016-11-12T00:30:40.867Z,0
2016-11-12T00:31:40.877Z,0
2016-11-12T00:32:41.213Z,0
2016-11-12T00:33:40.598Z,0
2016-11-12T00:34:41.234Z,0
2016-11-12T00:35:40.947Z,0
2016-11-12T00:36:40.951Z,0
2016-11-12T00:37:41.341Z,0
2016-11-12T00:38:41.309Z,0
2016-11-12T00:39:40.996Z,0
2016-11-12T00:40:41.327Z,0
2016-11-12T00:41:41.352Z,0
2016-11-12T00:42:41.177Z,0
2016-11-12T00:43:41.061Z,0
2016-11-12T00:44:40.761Z,0
2016-11-12T00:45:41.083Z,0
2016-11-12T00:46:41.096Z,0
2016-11-12T00:47:41.145Z,0
2016-11-12T00:48:41.457Z,0
2016-11-12T00:49:41.451Z,0
2016-11-12T00:50:41.467Z,0
2016-11-12T00:51:41.166Z,0
2016-11-12T00:52:40.871Z,0
2016-11-12T00:53:41.512Z,0
2016-11-12T00:54:41.866Z,0
2016-11-12T00:55:41.221Z,0
2016-11-12T00:56:41.246Z,0
2016-11-12T00:57:41.254Z,0
2016-11-12T00:58:41.593Z,0
2016-11-12T00:59:41.600Z,0
2016-11-12T01:00:40.990Z,0
2016-11-12T01:01:41.353Z,0
2016-11-12T01:02:41.643Z,0
2016-11-12T01:03:41.021Z,0
2016-11-12T01:04:41.991Z,0
2016-11-12T01:05:41.376Z,0
2016-11-12T01:06:41.388Z,0
2016-11-12T01:07:41.396Z,0
2016-11-12T01:08:41.415Z,0
2016-11-12T01:09:41.743Z,0
2016-11-12T01:10:41.445Z,0
2016-11-12T01:11:41.774Z,0
2016-11-12T01:12:41.162Z,0
2016-11-12T01:13:41.816Z,0
2016-11-12T01:14:56.392Z,0
2016-11-12T01:15:41.833Z,0
2016-11-12T01:16:41.843Z,0
2016-11-12T01:17:41.579Z,0
2016-11-12T01:18:41.245Z,0
2016-11-12T01:19:41.888Z,0
2016-11-12T01:20:41.584Z,0
2016-11-12T01:21:41.599Z,0
2016-11-12T01:22:41.970Z,0
2016-11-12T01:23:41.629Z,0
2016-11-12T01:24:41.639Z,0
2016-11-12T01:25:41.660Z,0
2016-11-12T01:26:42.301Z,0
2016-11-12T01:27:42.332Z,0
2016-11-12T01:28:41.701Z,0
2016-11-12T01:29:41.429Z,0
2016-11-12T01:30:41.417Z,0
2016-11-12T01:31:41.740Z,0
2016-11-12T01:32:41.775Z,0
2016-11-12T01:33:41.455Z,0
2016-11-12T01:34:41.782Z,0
2016-11-12T01:35:41.806Z,0
2016-11-12T01:36:42.126Z,0
2016-11-12T01:37:41.516Z,0
2016-11-12T01:38:42.478Z,0
2016-11-12T01:39:41.854Z,0
2016-11-12T01:40:41.866Z,0
2016-11-12T01:41:42.090Z,0
2016-11-12T01:42:41.900Z,0
2016-11-12T01:43:42.232Z,0
2016-11-12T01:44:41.612Z,0
2016-11-12T01:45:41.952Z,0
2016-11-12T01:46:41.645Z,0
2016-11-12T01:47:41.985Z,0
2016-11-12T01:48:42.307Z,0
2016-11-12T01:49:42.333Z,0
2016-11-12T01:50:42.334Z,0
2016-11-12T01:51:42.028Z,0
2016-11-12T01:52:42.048Z,0
2016-11-12T01:53:41.740Z,0
2016-11-12T01:54:42.391Z,0
2016-11-12T01:55:56.972Z,0
2016-11-12T01:56:42.102Z,0
2016-11-12T01:57:42.446Z,0
2016-11-12T01:58:42.131Z,0
2016-11-12T01:59:41.827Z,0
2016-11-12T02:00:41.844Z,0
2016-11-12T02:01:42.811Z,0
2016-11-12T02:02:42.208Z,0
2016-11-12T02:03:42.205Z,0
2016-11-12T02:04:42.222Z,0
2016-11-12T02:05:42.251Z,0
2016-11-12T02:06:42.563Z,0
2016-11-12T02:07:41.941Z,0
2016-11-12T02:08:42.270Z,0
2016-11-12T02:09:42.603Z,0
2016-11-12T02:10:42.308Z,0
2016-11-12T02:11:42.318Z,0
2016-11-12T02:12:42.338Z,0
2016-11-12T02:13:42.659Z,0
2016-11-12T02:14:42.361Z,0
2016-11-12T02:15:42.380Z,0
2016-11-12T02:16:42.705Z,0
2016-11-12T02:17:42.091Z,0
2016-11-12T02:18:42.428Z,0
2016-11-12T02:19:42.444Z,0
2016-11-12T02:20:42.454Z,0
2016-11-12T02:21:42.466Z,0
2016-11-12T02:22:42.202Z,0
2016-11-12T02:23:43.124Z,0
2016-11-12T02:24:42.503Z,0
2016-11-12T02:25:42.516Z,0
2016-11-12T02:26:42.218Z,0
2016-11-12T02:27:42.229Z,0
2016-11-12T02:28:42.875Z,0
2016-11-12T02:29:42.910Z,0
2016-11-12T02:30:42.587Z,0
2016-11-12T02:31:42.625Z,0
2016-11-12T02:32:42.935Z,0
2016-11-12T02:33:43.324Z,0
2016-11-12T02:34:42.354Z,0
2016-11-12T02:35:42.360Z,0
2016-11-12T02:36:42.989Z,0
2016-11-12T02:37:42.692Z,0
2016-11-12T02:38:42.711Z,0
2016-11-12T02:39:42.718Z,0
2016-11-12T02:40:42.737Z,0
2016-11-12T02:41:42.431Z,0
2016-11-12T02:42:43.079Z,0
2016-11-12T02:43:43.090Z,0
2016-11-12T02:44:43.106Z,0
2016-11-12T02:45:43.435Z,0
2016-11-12T02:46:43.133Z,0
2016-11-12T02:47:43.163Z,0
2016-11-12T02:48:42.841Z,0
2016-11-12T02:49:42.554Z,0
2016-11-12T02:50:42.569Z,0
2016-11-12T02:51:42.581Z,0
2016-11-12T02:52:43.220Z,0
2016-11-12T02:53:43.232Z,0
2016-11-12T02:54:42.932Z,0
2016-11-12T02:55:43.270Z,0
2016-11-12T02:56:43.330Z,0
2016-11-12T02:57:42.979Z,0
2016-11-12T02:58:43.308Z,0
2016-11-12T02:59:43.642Z,0
2016-11-12T03:00:43.336Z,0
2016-11-12T03:01:43.043Z,0
2016-11-12T03:02:43.070Z,0
2016-11-12T03:03:43.088Z,0
2016-11-12T03:04:43.076Z,0
2016-11-12T03:05:43.414Z,0
2016-11-12T03:06:43.103Z,0
2016-11-12T03:07:43.430Z,0
2016-11-12T03:08:43.774Z,0
2016-11-12T03:09:42.831Z,0
2016-11-12T03:10:43.484Z,0
2016-11-12T03:11:43.809Z,0
2016-11-12T03:12:43.195Z,0
2016-11-12T03:13:42.888Z,0
2016-11-12T03:14:43.220Z,0
2016-11-12T03:15:43.232Z,0
2016-11-12T03:16:43.578Z,0
2016-11-12T03:17:43.898Z,0
2016-11-12T03:18:43.276Z,0
2016-11-12T03:19:43.927Z,0
2016-11-12T03:20:43.627Z,0
2016-11-12T03:21:43.318Z,0
2016-11-12T03:22:43.646Z,0
2016-11-12T03:23:43.990Z,0
2016-11-12T03:24:43.363Z,0
2016-11-12T03:25:43.689Z,0
2016-11-12T03:26:44.023Z,0
2016-11-12T03:27:43.408Z,0
2016-11-12T03:28:43.741Z,0
2016-11-12T03:29:43.443Z,0
2016-11-12T03:30:43.762Z,0
2016-11-12T03:31:44.107Z,0
2016-11-12T03:32:43.495Z,0
2016-11-12T03:33:43.801Z,0
2016-11-12T03:34:43.503Z,0
2016-11-12T03:35:43.518Z,0
2016-11-12T03:36:43.848Z,0
2016-11-12T03:37:43.549Z,0
2016-11-12T03:38:43.875Z,0
2016-11-12T03:39:43.573Z,0
2016-11-12T03:40:43.277Z,0
2016-11-12T03:41:44.238Z,0
2016-11-12T03:42:43.936Z,0
2016-11-12T03:43:43.633Z,0
2016-11-12T03:44:43.645Z,0
2016-11-12T03:45:43.984Z,0
2016-11-12T03:46:43.989Z,0
2016-11-12T03:47:43.374Z,0
2016-11-12T03:48:44.028Z,0
2016-11-12T03:49:43.720Z,0
2016-11-12T03:50:43.738Z,0
2016-11-12T03:51:44.061Z,0
2016-11-12T03:52:43.754Z,0
2016-11-12T03:53:43.459Z,0
2016-11-12T03:54:43.471Z,0
2016-11-12T03:55:44.125Z,0
2016-11-12T03:56:43.817Z,0
2016-11-12T03:57:43.840Z,0
2016-11-12T03:58:44.472Z,0
2016-11-12T03:59:44.200Z,0
2016-11-12T04:00:43.573Z,0
2016-11-12T04:01:43.902Z,0
2016-11-12T04:02:44.535Z,0
2016-11-12T04:03:43.908Z,0
2016-11-12T04:04:43.929Z,0
2016-11-12T04:05:44.263Z,0
2016-11-12T04:06:44.283Z,0
2016-11-12T04:07:44.287Z,0
2016-11-12T04:08:43.987Z,0
2016-11-12T04:09:44.002Z,0
2016-11-12T04:10:44.644Z,0
2016-11-12T04:11:44.342Z,0
2016-11-12T04:12:43.726Z,0
2016-11-12T04:13:44.057Z,0
2016-11-12T04:14:44.741Z,0
2016-11-12T04:15:44.440Z,0
2016-11-12T04:16:44.097Z,0
2016-11-12T04:17:44.108Z,0
2016-11-12T04:18:44.443Z,0
2016-11-12T04:19:43.825Z,0
2016-11-12T04:20:44.154Z,0
2016-11-12T04:21:44.800Z,0
2016-11-12T04:22:44.505Z,0
2016-11-12T04:23:44.199Z,0
2016-11-12T04:24:44.525Z,0
2016-11-12T04:25:44.867Z,0
2016-11-12T04:26:43.920Z,0
2016-11-12T04:27:44.574Z,0
2016-11-12T04:28:44.047Z,0
2016-11-12T04:29:43.986Z,0
2016-11-12T04:30:44.613Z,0
2016-11-12T04:31:44.306Z,0
2016-11-12T04:32:44.327Z,0
2016-11-12T04:33:44.655Z,0
2016-11-12T04:34:44.357Z,0
2016-11-12T04:35:44.366Z,0
2016-11-12T04:36:44.698Z,0
2016-11-12T04:37:44.710Z,0
2016-11-12T04:38:44.718Z,0
2016-11-12T04:39:44.736Z,0
2016-11-12T04:40:44.749Z,0
2016-11-12T04:41:44.452Z,0
2016-11-12T04:42:44.778Z,0
2016-11-12T04:43:44.804Z,0
2016-11-12T04:44:44.814Z,0
2016-11-12T04:45:44.507Z,0
2016-11-12T04:46:44.837Z,0
2016-11-12T04:47:44.575Z,0
2016-11-12T04:48:44.870Z,0
2016-11-12T04:49:44.875Z,0
2016-11-12T04:50:45.211Z,0
2016-11-12T04:51:44.277Z,0
2016-11-12T04:52:44.289Z,0
2016-11-12T04:53:44.969Z,0
2016-11-12T04:54:44.319Z,0
2016-11-12T04:55:44.653Z,0
2016-11-12T04:56:44.674Z,0
2016-11-12T04:57:44.674Z,0
2016-11-12T04:58:45.066Z,0
2016-11-12T04:59:44.719Z,0
2016-11-12T05:00:44.724Z,0
2016-11-12T05:01:44.733Z,0
2016-11-12T05:02:44.747Z,0
2016-11-12T05:03:44.763Z,0
2016-11-12T05:04:44.777Z,0
2016-11-12T05:05:44.472Z,0
2016-11-12T05:06:44.528Z,0
2016-11-12T05:07:44.817Z,0
2016-11-12T05:08:45.151Z,0
2016-11-12T05:09:45.160Z,0
2016-11-12T05:10:45.172Z,0
2016-11-12T05:11:45.187Z,0
2016-11-12T05:12:44.584Z,0
2016-11-12T05:13:45.213Z,0
2016-11-12T05:14:45.229Z,0
2016-11-12T05:15:45.248Z,0
2016-11-12T05:16:44.627Z,0
2016-11-12T05:17:45.279Z,0
2016-11-12T05:18:44.972Z,0
2016-11-12T05:19:45.311Z,0
2016-11-12T05:20:44.996Z,0
2016-11-12T05:21:45.015Z,0
2016-11-12T05:22:45.352Z,0
2016-11-12T05:23:45.075Z,0
2016-11-12T05:24:45.382Z,0
2016-11-12T05:25:45.391Z,0
2016-11-12T05:26:45.089Z,0
2016-11-12T05:27:45.123Z,0
2016-11-12T05:28:44.816Z,0
2016-11-12T05:29:45.134Z,0
2016-11-12T05:30:45.138Z,0
2016-11-12T05:31:45.166Z,0
2016-11-12T05:32:44.857Z,0
2016-11-12T05:33:45.191Z,0
2016-11-12T05:34:45.517Z,0
2016-11-12T05:35:45.552Z,0
2016-11-12T05:36:45.226Z,0
2016-11-12T05:37:45.253Z,0
2016-11-12T05:38:45.262Z,0
2016-11-12T05:39:45.275Z,0
2016-11-12T05:40:45.286Z,0
2016-11-12T05:41:45.661Z,0
2016-11-12T05:42:45.627Z,0
2016-11-12T05:43:45.329Z,0
2016-11-12T05:44:45.659Z,0
2016-11-12T05:45:45.361Z,0
2016-11-12T05:46:45.683Z,0
2016-11-12T05:47:45.696Z,0
2016-11-12T05:48:45.717Z,0
2016-11-12T05:49:45.411Z,0
2016-11-12T05:50:45.108Z,0
2016-11-12T05:51:45.441Z,0
2016-11-12T05:52:45.784Z,0
2016-11-12T05:53:45.477Z,0
2016-11-12T05:54:45.498Z,0
2016-11-12T05:55:45.494Z,0
2016-11-12T05:56:45.863Z,0
2016-11-12T05:57:45.543Z,0
2016-11-12T05:58:45.237Z,0
2016-11-12T05:59:45.556Z,0
2016-11-12T06:00:45.566Z,0
2016-11-12T06:01:45.265Z,0
2016-11-12T06:02:45.599Z,0
2016-11-12T06:03:45.295Z,0
2016-11-12T06:04:45.635Z,0
2016-11-12T06:05:45.326Z,0
2016-11-12T06:06:45.986Z,0
2016-11-12T06:07:45.671Z,0
2016-11-12T06:08:45.688Z,0
2016-11-12T06:09:46.013Z,0
2016-11-12T06:10:45.724Z,0
2016-11-12T06:11:46.046Z,0
2016-11-12T06:12:45.738Z,0
2016-11-12T06:13:46.067Z,0
2016-11-12T06:14:46.083Z,0
2016-11-12T06:15:46.094Z,0
2016-11-12T06:16:46.114Z,0
2016-11-12T06:17:45.806Z,4
2016-11-12T06:18:46.460Z,0
2016-11-12T06:19:46.468Z,4
2016-11-12T06:20:46.168Z,4
2016-11-12T06:21:45.866Z,4
2016-11-12T06:22:45.894Z,4
2016-11-12T06:23:46.207Z,0
2016-11-12T06:24:45.599Z,0
2016-11-12T06:25:46.274Z,0
2016-11-12T06:26:45.958Z,4
2016-11-12T06:27:45.965Z,4
2016-11-12T06:28:45.648Z,4
2016-11-12T06:29:45.978Z,4
2016-11-12T06:30:45.678Z,4
2016-11-12T06:31:46.040Z,4
2016-11-12T06:32:45.711Z,4
2016-11-12T06:33:46.353Z,4
2016-11-12T06:34:46.056Z,4
2016-11-12T06:35:46.064Z,4
2016-11-12T06:36:45.763Z,4
2016-11-12T06:37:46.099Z,8
2016-11-12T06:38:45.842Z,4
2016-11-12T06:39:45.824Z,4
2016-11-12T06:40:46.144Z,4
2016-11-12T06:41:46.463Z,4
2016-11-12T06:42:45.858Z,4
2016-11-12T06:43:46.516Z,8
2016-11-12T06:44:46.508Z,8
2016-11-12T06:45:46.257Z,8
2016-11-12T06:46:46.537Z,8
2016-11-12T06:47:46.864Z,8
2016-11-12T06:48:46.565Z,8
2016-11-12T06:49:46.577Z,8
2016-11-12T06:50:45.958Z,8
2016-11-12T06:51:46.617Z,8
2016-11-12T06:52:46.320Z,8
2016-11-12T06:53:46.323Z,8
2016-11-12T06:54:46.079Z,8
2016-11-12T06:55:46.356Z,8
2016-11-12T06:56:46.060Z,8
2016-11-12T06:57:46.687Z,8
2016-11-12T06:58:46.395Z,12
2016-11-12T06:59:46.411Z,12
2016-11-12T07:00:46.750Z,8
2016-11-12T07:01:46.749Z,12
2016-11-12T07:02:46.453Z,12
2016-11-12T07:03:46.791Z,8
2016-11-12T07:04:46.795Z,8
2016-11-12T07:05:46.806Z,12
2016-11-12T07:06:46.509Z,8
2016-11-12T07:07:46.525Z,12
2016-11-12T07:08:46.860Z,12
2016-11-12T07:09:46.239Z,12
2016-11-12T07:10:46.882Z,12
2016-11-12T07:11:46.269Z,12
2016-11-12T07:12:46.588Z,12
2016-11-12T07:13:46.915Z,12
2016-11-12T07:14:46.620Z,12
2016-11-12T07:15:46.632Z,16
2016-11-12T07:16:46.327Z,16
2016-11-12T07:17:46.982Z,16
2016-11-12T07:18:46.675Z,16
2016-11-12T07:19:46.707Z,20
2016-11-12T07:20:46.745Z,20
2016-11-12T07:21:47.033Z,20
2016-11-12T07:22:47.364Z,16
2016-11-12T07:23:46.451Z,16
2016-11-12T07:24:46.774Z,16
2016-11-12T07:25:47.123Z,16
2016-11-12T07:26:46.791Z,20
2016-11-12T07:27:47.119Z,24
2016-11-12T07:28:46.814Z,24
2016-11-12T07:29:47.147Z,24
2016-11-12T07:30:46.847Z,28
2016-11-12T07:31:47.176Z,28
2016-11-12T07:32:47.507Z,28
2016-11-12T07:33:46.574Z,32
2016-11-12T07:34:46.903Z,32
2016-11-12T07:35:47.235Z,32
2016-11-12T07:36:47.241Z,32
2016-11-12T07:37:46.642Z,32
2016-11-12T07:38:47.595Z,32
2016-11-12T07:39:47.292Z,36
2016-11-12T07:40:47.623Z,36
2016-11-12T07:41:47.322Z,36
2016-11-12T07:42:47.335Z,36
2016-11-12T07:43:47.029Z,40
2016-11-12T07:44:46.729Z,36
2016-11-12T07:45:46.739Z,36
2016-11-12T07:46:47.705Z,36
2016-11-12T07:47:47.402Z,44
2016-11-12T07:48:46.807Z,52
2016-11-12T07:49:47.121Z,56
2016-11-12T07:50:47.142Z,64
2016-11-12T07:51:47.153Z,68
2016-11-12T07:52:46.861Z,68
2016-11-12T07:53:47.499Z,64
2016-11-12T07:54:46.882Z,60
2016-11-12T07:55:47.199Z,64
2016-11-12T07:56:47.215Z,68
2016-11-12T07:57:47.236Z,72
2016-11-12T07:58:47.242Z,76
2016-11-12T07:59:46.937Z,80
2016-11-12T08:00:47.584Z,84
2016-11-12T08:01:47.285Z,88
2016-11-12T08:02:47.299Z,96
2016-11-12T08:03:47.625Z,84
2016-11-12T08:04:47.059Z,76
2016-11-12T08:05:47.338Z,80
2016-11-12T08:06:47.363Z,80
2016-11-12T08:07:47.375Z,84
2016-11-12T08:08:47.694Z,84
2016-11-12T08:09:47.394Z,96
2016-11-12T08:10:47.412Z,104
2016-11-12T08:11:47.429Z,100
2016-11-12T08:12:47.759Z,100
2016-11-12T08:13:47.774Z,108
2016-11-12T08:14:47.501Z,108
2016-11-12T08:15:47.476Z,92
2016-11-12T08:16:48.128Z,92
2016-11-12T08:17:47.513Z,84
2016-11-12T08:18:47.532Z,96
2016-11-12T08:19:47.553Z,104
2016-11-12T08:20:47.553Z,104
2016-11-12T08:21:47.918Z,104
2016-11-12T08:22:47.599Z,96
2016-11-12T08:23:48.222Z,92
2016-11-12T08:24:47.606Z,88
2016-11-12T08:25:47.624Z,84
2016-11-12T08:26:47.323Z,100
2016-11-12T08:27:47.334Z,132
2016-11-12T08:28:47.664Z,168
2016-11-12T08:29:47.679Z,188
2016-11-12T08:30:48.329Z,176
2016-11-12T08:31:48.030Z,164
2016-11-12T08:32:48.038Z,152
2016-11-12T08:33:48.372Z,136
2016-11-12T08:34:47.754Z,120
2016-11-12T08:35:47.467Z,112
2016-11-12T08:36:47.787Z,120
2016-11-12T08:37:47.802Z,124
2016-11-12T08:38:48.129Z,136
2016-11-12T08:39:48.457Z,168
2016-11-12T08:40:48.153Z,220
2016-11-12T08:41:47.857Z,284
2016-11-12T08:42:48.184Z,316
2016-11-12T08:43:48.206Z,292
2016-11-12T08:44:47.927Z,284
2016-11-12T08:45:47.909Z,320
2016-11-12T08:46:48.248Z,348
2016-11-12T08:47:47.944Z,344
2016-11-12T08:48:48.583Z,316
2016-11-12T08:49:47.979Z,340
2016-11-12T08:50:48.000Z,384
2016-11-12T08:51:47.993Z,392
2016-11-12T08:52:48.327Z,424
2016-11-12T08:53:48.027Z,468
2016-11-12T08:54:48.354Z,384
2016-11-12T08:55:48.068Z,304
2016-11-12T08:56:48.395Z,268
2016-11-12T08:57:48.716Z,244
2016-11-12T08:58:48.103Z,232
2016-11-12T08:59:48.121Z,216
2016-11-12T09:00:48.449Z,208
2016-11-12T09:01:47.835Z,212
2016-11-12T09:02:48.870Z,204
2016-11-12T09:03:48.802Z,192
2016-11-12T09:04:48.509Z,192
2016-11-12T09:05:48.212Z,188
2016-11-12T09:06:48.218Z,188
2016-11-12T09:07:48.551Z,192
2016-11-12T09:08:48.248Z,184
2016-11-12T09:09:48.579Z,164
2016-11-12T09:10:48.589Z,148
2016-11-12T09:11:48.288Z,132
2016-11-12T09:12:48.631Z,128
2016-11-12T09:13:48.953Z,120
2016-11-12T09:14:48.338Z,112
2016-11-12T09:15:48.981Z,116
2016-11-12T09:16:48.682Z,120
2016-11-12T09:17:48.381Z,124
2016-11-12T09:18:48.396Z,132
2016-11-12T09:19:49.050Z,144
2016-11-12T09:20:48.748Z,148
2016-11-12T09:21:48.755Z,144
2016-11-12T09:22:48.139Z,140
2016-11-12T09:23:48.472Z,128
2016-11-12T09:24:48.499Z,128
2016-11-12T09:25:48.811Z,124
2016-11-12T09:26:48.851Z,116
2016-11-12T09:27:48.572Z,116
2016-11-12T09:28:48.856Z,108
2016-11-12T09:29:48.258Z,104
2016-11-12T09:30:48.254Z,96
2016-11-12T09:31:48.581Z,96
2016-11-12T09:32:48.599Z,96
2016-11-12T09:33:48.930Z,104
2016-11-12T09:34:48.628Z,124
2016-11-12T09:35:48.955Z,136
2016-11-12T09:36:48.657Z,136
2016-11-12T09:37:48.737Z,128
2016-11-12T09:38:49.322Z,128
2016-11-12T09:39:49.334Z,124
2016-11-12T09:40:48.719Z,124
2016-11-12T09:41:49.049Z,132
2016-11-12T09:42:49.066Z,136
2016-11-12T09:43:48.761Z,140
2016-11-12T09:44:48.770Z,140
2016-11-12T09:45:48.470Z,132
2016-11-12T09:46:48.801Z,132
2016-11-12T09:47:48.501Z,136
2016-11-12T09:48:48.520Z,140
2016-11-12T09:49:48.845Z,148
2016-11-12T09:50:49.179Z,160
2016-11-12T09:51:48.880Z,164
2016-11-12T09:52:48.894Z,176
2016-11-12T09:53:49.221Z,188
2016-11-12T09:54:48.921Z,192
2016-11-12T09:55:48.944Z,184
2016-11-12T09:56:49.588Z,184
2016-11-12T09:57:48.650Z,176
2016-11-12T09:58:48.669Z,180
2016-11-12T09:59:49.311Z,164
2016-11-12T10:00:49.013Z,164
2016-11-12T10:01:48.716Z,168
2016-11-12T10:02:49.058Z,172
2016-11-12T10:03:49.375Z,176
2016-11-12T10:04:49.387Z,184
2016-11-12T10:05:48.812Z,184
2016-11-12T10:06:48.782Z,184
2016-11-12T10:07:49.112Z,180
2016-11-12T10:08:49.132Z,172
2016-11-12T10:09:49.498Z,168
2016-11-12T10:10:49.497Z,160
2016-11-12T10:11:49.491Z,164
2016-11-12T10:12:49.638Z,172
2016-11-12T10:13:49.554Z,180
2016-11-12T10:14:49.848Z,192
2016-11-12T10:15:48.915Z,200
2016-11-12T10:16:49.244Z,216
2016-11-12T10:17:49.572Z,228
2016-11-12T10:18:49.275Z,232
2016-11-12T10:19:48.996Z,244
2016-11-12T10:20:49.306Z,252
2016-11-12T10:21:49.323Z,260
2016-11-12T10:22:49.682Z,272
2016-11-12T10:23:49.695Z,288
2016-11-12T10:24:49.674Z,308
2016-11-12T10:25:49.717Z,320
2016-11-12T10:26:49.710Z,324
2016-11-12T10:27:49.436Z,332
2016-11-12T10:28:49.422Z,344
2016-11-12T10:29:49.775Z,360
2016-11-12T10:30:49.770Z,372
2016-11-12T10:31:49.462Z,384
2016-11-12T10:32:49.795Z,396
2016-11-12T10:33:49.494Z,404
2016-11-12T10:34:49.853Z,404
2016-11-12T10:35:49.844Z,388
2016-11-12T10:36:49.536Z,376
2016-11-12T10:37:49.557Z,348
2016-11-12T10:38:49.880Z,328
2016-11-12T10:39:49.908Z,316
2016-11-12T10:40:49.950Z,300
2016-11-12T10:41:49.929Z,280
2016-11-12T10:42:49.948Z,260
2016-11-12T10:43:49.646Z,244
2016-11-12T10:44:49.971Z,232
2016-11-12T10:45:49.992Z,220
2016-11-12T10:46:50.055Z,220
2016-11-12T10:47:50.333Z,220
2016-11-12T10:48:49.714Z,220
2016-11-12T10:49:50.047Z,224
2016-11-12T10:50:50.114Z,220
2016-11-12T10:51:49.445Z,216
2016-11-12T10:52:50.090Z,220
2016-11-12T10:53:50.107Z,224
2016-11-12T10:54:49.803Z,228
2016-11-12T10:55:49.505Z,240
2016-11-12T10:56:49.841Z,244
2016-11-12T10:57:49.853Z,256
2016-11-12T10:58:49.874Z,260
2016-11-12T10:59:50.230Z,252
2016-11-12T11:00:49.896Z,260
2016-11-12T11:01:49.607Z,256
2016-11-12T11:02:49.934Z,252
2016-11-12T11:03:49.943Z,240
2016-11-12T11:04:50.298Z,232
2016-11-12T11:05:50.347Z,228
2016-11-12T11:06:49.671Z,232
2016-11-12T11:07:50.643Z,244
2016-11-12T11:08:50.337Z,252
2016-11-12T11:09:50.349Z,260
2016-11-12T11:10:50.364Z,268
2016-11-12T11:11:50.068Z,276
2016-11-12T11:12:50.707Z,288
2016-11-12T11:13:50.115Z,292
2016-11-12T11:14:50.427Z,292
2016-11-12T11:15:50.134Z,296
2016-11-12T11:16:50.767Z,300
2016-11-12T11:17:50.152Z,300
2016-11-12T11:18:50.793Z,304
2016-11-12T11:19:50.548Z,300
2016-11-12T11:20:50.833Z,304
2016-11-12T11:21:50.235Z,312
2016-11-12T11:22:50.224Z,324
2016-11-12T11:23:50.561Z,340
2016-11-12T11:24:50.258Z,364
2016-11-12T11:25:50.906Z,384
2016-11-12T11:26:50.605Z,436
2016-11-12T11:27:50.619Z,428
2016-11-12T11:28:50.313Z,420
2016-11-12T11:29:50.331Z,408
2016-11-12T11:30:50.664Z,396
2016-11-12T11:31:50.998Z,392
2016-11-12T11:32:51.012Z,384
2016-11-12T11:33:50.710Z,384
2016-11-12T11:34:50.725Z,396
2016-11-12T11:35:50.424Z,408
2016-11-12T11:36:50.486Z,420
2016-11-12T11:37:50.455Z,424
2016-11-12T11:38:50.471Z,424
2016-11-12T11:39:50.798Z,420
2016-11-12T11:40:50.496Z,408
2016-11-12T11:41:51.146Z,400
2016-11-12T11:42:50.530Z,384
2016-11-12T11:43:50.553Z,384
2016-11-12T11:44:50.877Z,372
2016-11-12T11:45:50.893Z,368
2016-11-12T11:46:50.941Z,360
2016-11-12T11:47:50.921Z,344
2016-11-12T11:48:50.957Z,328
2016-11-12T11:49:50.954Z,316
2016-11-12T11:50:51.280Z,304
2016-11-12T11:51:50.989Z,296
2016-11-12T11:52:50.376Z,288
2016-11-12T11:53:50.389Z,276
2016-11-12T11:54:50.751Z,272
2016-11-12T11:55:51.063Z,268
2016-11-12T11:56:50.773Z,256
2016-11-12T11:57:51.087Z,248
2016-11-12T11:58:51.410Z,248
2016-11-12T11:59:51.436Z,248
2016-11-12T12:00:51.434Z,252
2016-11-12T12:01:51.137Z,252
2016-11-12T12:02:50.530Z,260
2016-11-12T12:03:51.175Z,276
2016-11-12T12:04:51.503Z,288
2016-11-12T12:05:51.205Z,304
2016-11-12T12:06:50.901Z,316
2016-11-12T12:07:51.232Z,324
2016-11-12T12:08:50.929Z,336
2016-11-12T12:09:51.286Z,344
2016-11-12T12:10:50.961Z,344
2016-11-12T12:11:50.983Z,348
2016-11-12T12:12:51.306Z,348
2016-11-12T12:13:51.560Z,344
2016-11-12T12:14:51.356Z,340
2016-11-12T12:15:51.036Z,336
2016-11-12T12:16:51.367Z,340
2016-11-12T12:17:50.755Z,340
2016-11-12T12:18:51.719Z,340
2016-11-12T12:19:51.115Z,340
2016-11-12T12:20:51.117Z,336
2016-11-12T12:21:50.837Z,328
2016-11-12T12:22:51.147Z,316
2016-11-12T12:23:51.170Z,304
2016-11-12T12:24:51.178Z,296
2016-11-12T12:25:50.880Z,292
2016-11-12T12:26:51.209Z,280
2016-11-12T12:27:51.546Z,264
2016-11-12T12:28:51.269Z,256
2016-11-12T12:29:51.251Z,244
2016-11-12T12:30:51.273Z,224
2016-11-12T12:31:51.915Z,208
2016-11-12T12:32:50.978Z,200
2016-11-12T12:33:51.344Z,192
2016-11-12T12:34:51.642Z,188
2016-11-12T12:35:51.361Z,184
2016-11-12T12:36:51.390Z,176
2016-11-12T12:37:51.382Z,176
2016-11-12T12:38:51.707Z,176
2016-11-12T12:39:51.723Z,180
2016-11-12T12:40:52.049Z,184
2016-11-12T12:41:51.439Z,180
2016-11-12T12:42:51.139Z,184
2016-11-12T12:43:51.468Z,180
2016-11-12T12:44:51.166Z,180
2016-11-12T12:45:51.498Z,176
2016-11-12T12:46:51.832Z,168
2016-11-12T12:47:51.212Z,172
2016-11-12T12:48:51.542Z,172
2016-11-12T12:49:51.252Z,180
2016-11-12T12:50:51.588Z,180
2016-11-12T12:51:51.278Z,172
2016-11-12T12:52:51.932Z,176
2016-11-12T12:53:51.621Z,172
2016-11-12T12:54:51.639Z,164
2016-11-12T12:55:51.341Z,160
2016-11-12T12:56:51.684Z,164
2016-11-12T12:57:52.619Z,160
2016-11-12T12:58:51.405Z,164
2016-11-12T12:59:52.050Z,164
2016-11-12T13:00:52.047Z,164
2016-11-12T13:01:52.061Z,164
2016-11-12T13:02:51.760Z,168
2016-11-12T13:03:52.089Z,172
2016-11-12T13:04:51.792Z,168
2016-11-12T13:05:51.809Z,168
2016-11-12T13:06:51.514Z,176
2016-11-12T13:07:52.155Z,180
2016-11-12T13:08:52.174Z,188
2016-11-12T13:09:51.871Z,200
2016-11-12T13:10:51.887Z,204
2016-11-12T13:11:52.225Z,212
2016-11-12T13:12:52.251Z,216
2016-11-12T13:13:51.934Z,220
2016-11-12T13:14:52.580Z,216
2016-11-12T13:15:52.283Z,216
2016-11-12T13:16:52.007Z,216
2016-11-12T13:17:52.011Z,228
2016-11-12T13:18:51.696Z,240
2016-11-12T13:19:52.657Z,248
2016-11-12T13:20:52.396Z,256
2016-11-12T13:21:51.762Z,256
2016-11-12T13:22:52.399Z,248
2016-11-12T13:23:52.403Z,244
2016-11-12T13:24:52.464Z,240
2016-11-12T13:25:52.434Z,232
2016-11-12T13:26:52.138Z,228
2016-11-12T13:27:52.149Z,240
2016-11-12T13:28:51.851Z,376
2016-11-12T13:29:52.817Z,300
2016-11-12T13:30:52.195Z,248
2016-11-12T13:31:52.210Z,388
2016-11-12T13:32:52.237Z,248
2016-11-12T13:33:52.560Z,328
2016-11-12T13:34:52.272Z,316
2016-11-12T13:35:51.968Z,224
2016-11-12T13:36:52.610Z,228
2016-11-12T13:37:52.657Z,220
2016-11-12T13:38:52.317Z,336
2016-11-12T13:39:52.655Z,264
2016-11-12T13:40:52.349Z,364
2016-11-12T13:41:52.370Z,584
2016-11-12T13:42:52.069Z,292
2016-11-12T13:43:52.713Z,396
2016-11-12T13:44:52.759Z,548
2016-11-12T13:45:52.432Z,480
2016-11-12T13:46:52.481Z,556
2016-11-12T13:47:52.466Z,600
2016-11-12T13:48:52.483Z,424
2016-11-12T13:49:52.495Z,416
2016-11-12T13:50:52.519Z,324
2016-11-12T13:51:53.360Z,236
2016-11-12T13:52:52.575Z,244
2016-11-12T13:53:52.897Z,320
2016-11-12T13:54:52.660Z,508
2016-11-12T13:55:52.587Z,520
2016-11-12T13:56:52.606Z,528
2016-11-12T13:57:52.311Z,480
2016-11-12T13:58:52.635Z,504
2016-11-12T13:59:52.963Z,508
2016-11-12T14:00:52.985Z,512
2016-11-12T14:01:53.027Z,524
2016-11-12T14:02:52.724Z,528
2016-11-12T14:03:52.433Z,520
2016-11-12T14:04:52.730Z,504
2016-11-12T14:05:53.093Z,484
2016-11-12T14:06:52.781Z,424
2016-11-12T14:07:53.414Z,456
2016-11-12T14:08:53.112Z,504
2016-11-12T14:09:52.495Z,328
2016-11-12T14:10:53.142Z,236
2016-11-12T14:11:52.848Z,216
2016-11-12T14:12:52.859Z,228
2016-11-12T14:13:52.878Z,240
2016-11-12T14:14:53.549Z,176
2016-11-12T14:15:53.225Z,168
2016-11-12T14:16:53.247Z,172
2016-11-12T14:17:52.627Z,168